Time;durP1;ratioP1;P1;durP2;ratioP2;P2;SDS_P1;SDS_P2;PMS_P1;PMS_P2;Temp;Humidity;BMP_temperature;BMP_pressure;BME280_temperature;BME280_humidity;BME280_pressure;Samples;Min_cycle;Max_cycle;Signal;HPM_P1;HPM_P2
2023/04/16 00:00:52;;;;;;;19.83;17.90;;;11.70;1.00;;;;;;6289148;22;20405;-80
2023/04/16 00:03:21;;;;;;;19.37;17.57;;;11.60;1.00;;;;;;6288275;22;20417;-79
2023/04/16 00:05:50;;;;;;;19.10;17.37;;;11.70;1.00;;;;;;6286744;22;20526;-80
2023/04/16 00:08:17;;;;;;;18.90;17.00;;;11.70;1.00;;;;;;6263946;22;20547;-79
2023/04/16 00:10:44;;;;;;;20.70;18.60;;;11.70;1.00;;;;;;6299318;22;20410;-78
2023/04/16 00:13:12;;;;;;;18.63;16.90;;;11.60;1.00;;;;;;6290618;22;20427;-78
2023/04/16 00:15:39;;;;;;;20.30;18.40;;;11.70;1.00;;;;;;6294374;22;20427;-78
2023/04/16 00:18:07;;;;;;;19.67;17.97;;;11.70;1.00;;;;;;6292990;22;20422;-78
2023/04/16 00:20:35;;;;;;;20.37;18.50;;;11.60;1.00;;;;;;6292920;22;20393;-78
2023/04/16 00:23:04;;;;;;;20.07;18.27;;;11.60;1.00;;;;;;6277133;22;20499;-79
2023/04/16 00:25:32;;;;;;;21.77;19.80;;;11.60;1.00;;;;;;6289235;22;20420;-80
2023/04/16 00:28:00;;;;;;;21.00;19.00;;;11.60;1.00;;;;;;6283678;22;20417;-81
2023/04/16 00:30:27;;;;;;;19.23;17.47;;;11.50;1.00;;;;;;6282768;22;20429;-81
2023/04/16 00:32:54;;;;;;;20.10;18.20;;;11.50;1.00;;;;;;6279868;22;20472;-79
2023/04/16 00:35:21;;;;;;;22.13;19.93;;;11.50;1.00;;;;;;6281830;22;20437;-80
2023/04/16 00:37:50;;;;;;;19.80;18.00;;;11.50;1.00;;;;;;6281497;22;20463;-80
2023/04/16 00:40:17;;;;;;;22.07;19.93;;;11.50;1.00;;;;;;6282356;22;20528;-79
2023/04/16 00:42:44;;;;;;;21.40;19.40;;;11.50;1.00;;;;;;6282240;22;20847;-80
2023/04/16 00:45:12;;;;;;;22.23;20.13;;;11.50;1.00;;;;;;6280752;22;20441;-80
2023/04/16 00:47:39;;;;;;;20.50;18.70;;;11.50;1.00;;;;;;6280415;22;20449;-80
2023/04/16 00:50:07;;;;;;;20.60;18.60;;;11.60;1.00;;;;;;6277587;22;20421;-79
2023/04/16 00:52:35;;;;;;;22.17;19.97;;;11.60;1.00;;;;;;6282987;22;20715;-79
2023/04/16 00:55:04;;;;;;;23.00;20.50;;;11.70;1.00;;;;;;6280531;22;20432;-80
2023/04/16 00:57:31;;;;;;;20.53;18.63;;;11.70;1.00;;;;;;6284402;22;20426;-80
2023/04/16 00:59:59;;;;;;;21.80;19.90;;;11.70;1.00;;;;;;6282275;22;20414;-80
2023/04/16 01:08:04;;;;;;;22.00;19.90;;;11.80;1.00;;;;;;6260922;22;20915;-82
2023/04/16 01:18:59;;;;;;;22.17;19.97;;;11.70;1.00;;;;;;6259953;22;20483;-80
2023/04/16 01:35:30;;;;;;;22.33;20.23;;;11.70;1.00;;;;;;6275488;22;20423;-80
2023/04/16 01:44:03;;;;;;;24.57;22.17;;;11.70;1.00;;;;;;6276874;22;20408;-81
2023/04/16 01:53:08;;;;;;;22.27;20.27;;;11.70;1.00;;;;;;6272069;22;20400;-81
2023/04/16 01:59:22;;;;;;;23.60;21.40;;;11.60;1.00;;;;;;6241490;22;20423;-83
2023/04/16 02:02:19;;;;;;;24.90;22.60;;;11.70;1.00;;;;;;6273243;22;20430;-80
2023/04/16 02:05:08;;;;;;;23.37;21.13;;;11.70;1.00;;;;;;6267472;22;20404;-80
2023/04/16 02:07:45;;;;;;;23.10;20.90;;;11.70;1.00;;;;;;6260215;22;20424;-81
2023/04/16 02:10:31;;;;;;;24.23;21.83;;;11.60;1.00;;;;;;6274830;22;20505;-81
2023/04/16 02:16:11;;;;;;;24.03;21.73;;;11.70;1.00;;;;;;6226984;22;20422;-81
2023/04/16 02:30:03;;;;;;;23.30;20.80;;;11.80;1.00;;;;;;6263465;22;20454;-82
2023/04/16 02:44:21;;;;;;;22.13;20.03;;;11.70;1.00;;;;;;6288135;22;20432;-82
2023/04/16 02:52:28;;;;;;;22.93;20.60;;;11.60;1.00;;;;;;6286914;22;20413;-83
2023/04/16 04:07:33;;;;;;;28.97;25.83;;;11.10;1.00;;;;;;6199521;22;20507;-80
2023/04/16 04:10:00;;;;;;;29.60;25.67;;;11.10;1.00;;;;;;6281787;22;20433;-81
2023/04/16 04:12:27;;;;;;;30.03;26.50;;;11.20;1.00;;;;;;6277864;22;20869;-82
2023/04/16 04:14:55;;;;;;;29.63;26.50;;;11.20;1.00;;;;;;6280962;22;20430;-82
2023/04/16 04:17:25;;;;;;;28.80;25.77;;;11.20;1.00;;;;;;6283147;22;20432;-82
2023/04/16 04:19:52;;;;;;;30.40;27.30;;;11.20;1.00;;;;;;6281115;22;20430;-83
2023/04/16 04:22:21;;;;;;;33.10;26.80;;;11.20;1.00;;;;;;6282471;22;20468;-83
2023/04/16 04:24:49;;;;;;;29.77;26.57;;;11.30;1.00;;;;;;6280164;22;20447;-82
2023/04/16 04:27:16;;;;;;;28.40;25.30;;;11.20;1.00;;;;;;6284201;22;20945;-82
2023/04/16 04:29:44;;;;;;;28.67;25.67;;;11.30;1.00;;;;;;6277038;22;20515;-82
2023/04/16 04:32:10;;;;;;;28.63;25.70;;;11.30;1.00;;;;;;6283886;22;20491;-83
2023/04/16 04:34:38;;;;;;;29.67;26.53;;;11.20;1.00;;;;;;6279212;22;20428;-83
2023/04/16 04:37:05;;;;;;;30.53;26.13;;;11.20;1.00;;;;;;6282322;22;20413;-82
2023/04/16 04:39:32;;;;;;;28.57;25.73;;;11.20;1.00;;;;;;6265477;22;20521;-82
2023/04/16 04:42:01;;;;;;;28.60;25.60;;;11.20;1.00;;;;;;6277300;22;20411;-82
2023/04/16 04:44:29;;;;;;;27.60;24.70;;;11.00;1.00;;;;;;6280626;22;21170;-82
2023/04/16 04:47:01;;;;;;;27.57;24.77;;;11.10;1.00;;;;;;6281452;22;20421;-82
2023/04/16 04:49:29;;;;;;;27.70;23.80;;;11.10;1.00;;;;;;6282959;22;20440;-83
2023/04/16 04:51:56;;;;;;;28.33;25.40;;;11.10;1.00;;;;;;6282781;22;20415;-82
2023/04/16 04:54:23;;;;;;;27.10;24.50;;;11.10;1.00;;;;;;6282940;22;21062;-83
2023/04/16 04:56:51;;;;;;;27.43;24.33;;;11.10;1.00;;;;;;6283302;22;20507;-82
2023/04/16 04:59:21;;;;;;;29.40;26.30;;;11.00;1.00;;;;;;6279607;22;20512;-82
2023/04/16 05:01:48;;;;;;;28.50;25.40;;;11.00;1.00;;;;;;6285656;22;20581;-83
2023/04/16 05:04:16;;;;;;;29.13;26.03;;;11.00;1.00;;;;;;6285555;22;20397;-82
2023/04/16 05:06:43;;;;;;;27.43;24.53;;;11.10;1.00;;;;;;6284956;22;20388;-82
2023/04/16 05:09:11;;;;;;;29.73;26.03;;;11.10;1.00;;;;;;6283158;22;20435;-82
2023/04/16 05:11:38;;;;;;;32.07;27.17;;;11.00;1.00;;;;;;6284616;22;20408;-82
2023/04/16 05:14:05;;;;;;;28.20;25.20;;;11.00;1.00;;;;;;6282341;22;20420;-82
2023/04/16 05:16:37;;;;;;;29.60;24.70;;;11.00;1.00;;;;;;6281545;22;20425;-81
2023/04/16 05:19:05;;;;;;;28.37;25.37;;;11.00;1.00;;;;;;6281558;22;20541;-82
2023/04/16 05:21:32;;;;;;;30.03;26.33;;;11.10;1.00;;;;;;6283773;22;20439;-82
2023/04/16 05:23:59;;;;;;;30.90;25.73;;;11.10;1.00;;;;;;6283577;22;20430;-82
2023/04/16 05:26:26;;;;;;;28.63;25.43;;;11.10;1.00;;;;;;6283867;22;20427;-82
2023/04/16 05:28:53;;;;;;;32.37;26.57;;;11.10;1.00;;;;;;6284184;22;20487;-82
2023/04/16 05:31:21;;;;;;;31.40;28.10;;;11.00;1.00;;;;;;6282825;22;20423;-82
2023/04/16 05:33:49;;;;;;;27.20;24.30;;;11.10;1.00;;;;;;6281716;22;20420;-82
2023/04/16 05:36:17;;;;;;;28.93;25.47;;;11.10;1.00;;;;;;6280474;22;20453;-82
2023/04/16 05:38:45;;;;;;;30.20;25.90;;;11.10;1.00;;;;;;6281660;22;20932;-82
2023/04/16 05:41:12;;;;;;;31.97;26.53;;;11.10;1.00;;;;;;6283922;22;21174;-82
2023/04/16 05:43:39;;;;;;;33.50;25.30;;;11.10;1.00;;;;;;6283001;22;21231;-83
2023/04/16 05:46:06;;;;;;;28.97;24.77;;;11.10;1.00;;;;;;6282575;22;20417;-82
2023/04/16 05:48:33;;;;;;;28.63;25.03;;;11.10;1.00;;;;;;6285099;22;20397;-82
2023/04/16 05:51:02;;;;;;;28.70;24.93;;;11.20;1.00;;;;;;6281715;22;20425;-82
2023/04/16 05:53:29;;;;;;;30.40;24.43;;;11.20;1.00;;;;;;6285888;22;20970;-81
2023/04/16 05:55:56;;;;;;;30.53;26.50;;;11.10;1.00;;;;;;6282904;22;20592;-82
2023/04/16 05:58:23;;;;;;;27.03;23.90;;;11.20;1.00;;;;;;6279752;22;20400;-82
2023/04/16 06:00:50;;;;;;;29.80;24.37;;;11.10;1.00;;;;;;6283459;22;20417;-82
2023/04/16 06:03:17;;;;;;;30.40;23.90;;;11.10;1.00;;;;;;6283759;22;20420;-82
2023/04/16 06:05:44;;;;;;;27.53;24.63;;;11.20;1.00;;;;;;6276849;22;20445;-82
2023/04/16 06:08:13;;;;;;;28.23;23.13;;;11.20;1.00;;;;;;6281766;22;20480;-82
2023/04/16 06:10:41;;;;;;;28.90;24.03;;;11.10;1.00;;;;;;6278953;22;20417;-82
2023/04/16 06:13:09;;;;;;;25.30;21.90;;;11.10;1.00;;;;;;6283375;22;20432;-82
2023/04/16 06:15:37;;;;;;;28.57;23.33;;;11.10;1.00;;;;;;6284201;22;20417;-82
2023/04/16 06:18:04;;;;;;;25.30;22.60;;;11.20;1.00;;;;;;6282448;22;20580;-81
2023/04/16 06:20:31;;;;;;;28.67;22.33;;;11.20;1.00;;;;;;6283078;22;20431;-81
2023/04/16 06:22:58;;;;;;;24.37;21.40;;;11.30;1.00;;;;;;6275801;22;20418;-81
2023/04/16 06:25:27;;;;;;;25.47;22.67;;;11.30;1.00;;;;;;6281320;22;20428;-80
2023/04/16 06:27:55;;;;;;;24.87;22.27;;;11.30;1.00;;;;;;6277105;22;20507;-81
2023/04/16 06:30:22;;;;;;;24.67;22.07;;;11.40;1.00;;;;;;6281259;22;20432;-81
2023/04/16 06:32:49;;;;;;;24.50;21.93;;;11.40;1.00;;;;;;6265035;22;21238;-81
2023/04/16 06:35:19;;;;;;;26.60;23.00;;;11.40;1.00;;;;;;6282320;22;20749;-81
2023/04/16 06:37:46;;;;;;;25.83;22.90;;;11.30;1.00;;;;;;6284693;22;20428;-81
2023/04/16 06:40:14;;;;;;;26.83;22.50;;;11.40;1.00;;;;;;6284694;22;20413;-81
2023/04/16 06:42:42;;;;;;;27.43;24.63;;;11.40;1.00;;;;;;6277208;22;21265;-82
2023/04/16 06:45:10;;;;;;;25.80;23.10;;;11.40;1.00;;;;;;6285661;22;21198;-81
2023/04/16 06:47:37;;;;;;;27.63;23.80;;;11.40;1.00;;;;;;6284782;22;20432;-81
2023/04/16 06:50:05;;;;;;;26.63;22.00;;;11.40;1.00;;;;;;6282734;22;20435;-82
2023/04/16 06:52:33;;;;;;;25.43;22.73;;;11.50;1.00;;;;;;6284564;22;20396;-81
2023/04/16 06:55:00;;;;;;;30.63;24.33;;;11.60;1.00;;;;;;6280228;22;20433;-81
2023/04/16 06:57:27;;;;;;;28.20;23.73;;;11.70;1.00;;;;;;6280075;22;20433;-81
2023/04/16 06:59:55;;;;;;;25.10;22.20;;;11.70;1.00;;;;;;6281340;22;20525;-79
2023/04/16 07:02:23;;;;;;;25.73;23.03;;;11.80;1.00;;;;;;6270205;22;20544;-80
2023/04/16 07:04:53;;;;;;;27.47;24.57;;;11.80;1.00;;;;;;6280960;22;20437;-79
2023/04/16 07:07:20;;;;;;;28.37;23.80;;;11.90;1.00;;;;;;6281199;22;20916;-80
2023/04/16 07:09:49;;;;;;;25.47;22.87;;;11.90;1.00;;;;;;6280940;22;20436;-80
2023/04/16 07:12:16;;;;;;;24.63;21.73;;;11.80;1.00;;;;;;6279106;22;20418;-80
2023/04/16 07:14:43;;;;;;;24.67;21.97;;;11.80;1.00;;;;;;6282632;22;20429;-80
2023/04/16 07:17:11;;;;;;;25.17;22.47;;;11.80;1.00;;;;;;6282189;22;20445;-80
2023/04/16 07:19:38;;;;;;;22.90;20.57;;;11.80;1.00;;;;;;6284219;22;20981;-82
2023/04/16 07:22:05;;;;;;;24.77;22.07;;;11.90;1.00;;;;;;6279122;22;20555;-80
2023/04/16 07:24:32;;;;;;;23.80;21.47;;;11.90;1.00;;;;;;6281285;22;20386;-80
2023/04/16 07:26:59;;;;;;;24.20;21.77;;;12.00;1.00;;;;;;6282775;22;21745;-80
2023/04/16 07:29:27;;;;;;;24.70;22.20;;;12.00;1.00;;;;;;6281728;22;20728;-81
2023/04/16 07:31:54;;;;;;;23.90;21.50;;;12.10;1.00;;;;;;6278541;22;20425;-81
2023/04/16 07:34:22;;;;;;;22.40;20.10;;;12.10;1.00;;;;;;6282320;22;20431;-81
2023/04/16 07:36:50;;;;;;;25.00;22.37;;;12.00;1.00;;;;;;6283208;22;20508;-81
2023/04/16 07:39:17;;;;;;;23.80;21.23;;;12.00;1.00;;;;;;6279693;22;20483;-81
2023/04/16 07:41:44;;;;;;;22.97;20.57;;;12.00;1.00;;;;;;6282351;22;20444;-81
2023/04/16 07:44:12;;;;;;;23.93;21.53;;;12.00;1.00;;;;;;6283263;22;20421;-80
2023/04/16 07:46:39;;;;;;;23.90;21.03;;;12.00;1.00;;;;;;6280567;22;20441;-82
2023/04/16 07:49:07;;;;;;;23.30;20.80;;;12.00;1.00;;;;;;6281385;22;20426;-81
2023/04/16 07:51:35;;;;;;;22.00;19.87;;;12.00;1.00;;;;;;6283843;22;20485;-81
2023/04/16 07:54:05;;;;;;;21.23;19.00;;;12.00;1.00;;;;;;6284972;22;20413;-80
2023/04/16 07:56:32;;;;;;;21.33;19.13;;;12.00;1.00;;;;;;6291424;22;20405;-80
2023/04/16 07:59:01;;;;;;;23.90;21.70;;;11.90;1.00;;;;;;6290386;22;20410;-83
2023/04/16 08:01:31;;;;;;;23.27;20.10;;;12.00;1.00;;;;;;6289445;22;20429;-84
2023/04/16 08:03:58;;;;;;;24.30;21.77;;;12.00;1.00;;;;;;6287403;22;20409;-85
2023/04/16 08:06:26;;;;;;;22.40;19.90;;;12.00;1.00;;;;;;6287950;22;20429;-86
2023/04/16 08:08:54;;;;;;;22.63;20.23;;;12.00;1.00;;;;;;6286837;22;20422;-85
2023/04/16 08:11:22;;;;;;;22.77;20.47;;;12.00;1.00;;;;;;6290880;22;20433;-86
2023/04/16 08:13:49;;;;;;;24.07;21.50;;;11.90;1.00;;;;;;6289850;22;20423;-85
2023/04/16 08:16:21;;;;;;;22.77;20.37;;;11.80;1.00;;;;;;6290721;22;21649;-84
2023/04/16 08:18:48;;;;;;;24.13;21.57;;;11.90;1.00;;;;;;6285077;22;20394;-85
2023/04/16 08:21:16;;;;;;;23.50;19.93;;;11.90;1.00;;;;;;6287050;22;21049;-85
2023/04/16 08:23:45;;;;;;;24.97;21.87;;;11.90;1.00;;;;;;6281949;22;20389;-84
2023/04/16 08:26:16;;;;;;;23.53;21.10;;;12.00;1.00;;;;;;6290725;22;20488;-84
2023/04/16 08:28:49;;;;;;;23.60;21.10;;;12.00;1.00;;;;;;6288157;22;21135;-84
2023/04/16 08:31:16;;;;;;;22.00;19.70;;;12.00;1.00;;;;;;6289105;22;20425;-85
2023/04/16 08:33:45;;;;;;;19.60;17.73;;;12.00;1.00;;;;;;6291200;22;20484;-85
2023/04/16 08:36:13;;;;;;;21.20;18.90;;;12.10;1.00;;;;;;6287000;22;20408;-83
2023/04/16 08:38:52;;;;;;;20.40;18.37;;;12.10;1.00;;;;;;6288806;22;20386;-82
2023/04/16 08:41:22;;;;;;;22.43;20.13;;;12.10;1.00;;;;;;6289216;22;20398;-86
2023/04/16 08:43:53;;;;;;;22.20;19.70;;;12.00;1.00;;;;;;6292126;22;20460;-85
2023/04/16 08:46:26;;;;;;;24.73;20.70;;;12.10;1.00;;;;;;6289252;22;20426;-83
2023/04/16 08:48:55;;;;;;;22.20;20.00;;;12.10;1.00;;;;;;6292363;22;20414;-84
2023/04/16 08:51:23;;;;;;;22.60;20.30;;;12.10;1.00;;;;;;6292425;22;20430;-84
2023/04/16 08:53:53;;;;;;;21.90;19.53;;;12.20;1.00;;;;;;6291097;22;20423;-83
2023/04/16 08:56:24;;;;;;;23.20;20.73;;;12.20;1.00;;;;;;6292839;22;20430;-83
2023/04/16 08:58:55;;;;;;;22.50;20.20;;;12.20;1.00;;;;;;6288746;22;20449;-83
2023/04/16 09:01:22;;;;;;;21.50;19.30;;;12.30;1.00;;;;;;6292158;22;20450;-83
2023/04/16 09:03:49;;;;;;;23.47;20.43;;;12.20;1.00;;;;;;6293598;22;20427;-84
2023/04/16 09:06:17;;;;;;;24.63;21.63;;;12.30;1.00;;;;;;6293980;22;20869;-83
2023/04/16 09:08:45;;;;;;;24.70;21.27;;;12.30;1.00;;;;;;6293317;22;20422;-83
2023/04/16 09:11:13;;;;;;;20.33;18.33;;;12.20;1.00;;;;;;6293600;22;20417;-84
2023/04/16 09:13:42;;;;;;;23.17;20.87;;;12.20;1.00;;;;;;6292578;22;20378;-83
2023/04/16 09:16:10;;;;;;;24.37;21.77;;;12.00;1.00;;;;;;6288223;22;20430;-83
2023/04/16 09:18:37;;;;;;;22.67;20.27;;;12.10;1.00;;;;;;6291717;22;20396;-83
2023/04/16 09:21:06;;;;;;;25.00;22.30;;;12.10;1.00;;;;;;6285373;22;20406;-83
2023/04/16 09:23:40;;;;;;;24.07;21.47;;;12.20;1.00;;;;;;6293205;22;20406;-83
2023/04/16 09:26:07;;;;;;;23.67;21.33;;;12.40;1.00;;;;;;6290123;22;20467;-83
2023/04/16 09:28:45;;;;;;;24.83;22.33;;;12.60;1.00;;;;;;6289891;22;20446;-85
2023/04/16 09:31:14;;;;;;;23.77;21.33;;;12.70;1.00;;;;;;6290038;22;20429;-84
2023/04/16 09:33:42;;;;;;;22.80;18.97;;;12.70;1.00;;;;;;6291243;22;20497;-82
2023/04/16 09:36:10;;;;;;;22.10;19.83;;;12.80;1.00;;;;;;6293056;22;20478;-82
2023/04/16 09:38:47;;;;;;;20.53;18.43;;;12.80;1.00;;;;;;6293039;22;20465;-85
2023/04/16 09:41:16;;;;;;;19.13;17.20;;;12.90;1.00;;;;;;6278305;22;20418;-83
2023/04/16 09:43:54;;;;;;;18.70;16.90;;;12.90;1.00;;;;;;6292565;22;20484;-83
2023/04/16 09:46:22;;;;;;;18.07;16.33;;;12.80;1.00;;;;;;6291672;22;21196;-84
2023/04/16 09:49:02;;;;;;;20.20;18.23;;;12.80;1.00;;;;;;6293176;22;20418;-83
2023/04/16 09:54:26;;;;;;;19.57;17.43;;;12.50;1.00;;;;;;6286149;22;20847;-85
2023/04/16 09:56:57;;;;;;;21.40;18.67;;;12.40;1.00;;;;;;6276328;22;20439;-85
2023/04/16 09:59:29;;;;;;;20.47;18.37;;;12.40;1.00;;;;;;6290140;22;20426;-82
2023/04/16 10:02:00;;;;;;;20.37;18.47;;;12.50;1.00;;;;;;6285948;22;20426;-83
2023/04/16 10:04:27;;;;;;;22.03;19.80;;;12.50;1.00;;;;;;6284480;22;20888;-83
2023/04/16 10:07:04;;;;;;;20.83;18.80;;;12.60;1.00;;;;;;6283885;22;20445;-85
2023/04/16 10:09:35;;;;;;;20.27;18.33;;;12.60;1.00;;;;;;6284779;22;20390;-85
2023/04/16 10:12:03;;;;;;;21.67;19.53;;;12.70;1.00;;;;;;6280206;22;20419;-85
2023/04/16 10:14:31;;;;;;;22.50;20.23;;;12.80;1.00;;;;;;6283823;22;20445;-85
2023/04/16 10:16:58;;;;;;;19.90;18.00;;;12.90;1.00;;;;;;6282297;22;20481;-84
2023/04/16 10:19:37;;;;;;;22.20;20.13;;;12.90;1.00;;;;;;6284120;22;20386;-85
2023/04/16 10:22:05;;;;;;;23.63;21.30;;;13.00;1.00;;;;;;6281751;22;20414;-83
2023/04/16 10:24:33;;;;;;;21.57;19.47;;;13.10;1.00;;;;;;6284786;22;20402;-85
2023/04/16 10:27:01;;;;;;;22.20;20.03;;;13.20;1.00;;;;;;6280994;22;20410;-85
2023/04/16 10:29:31;;;;;;;42.23;37.87;;;13.30;1.00;;;;;;6281567;22;20854;-85
2023/04/16 10:31:59;;;;;;;23.33;20.93;;;13.20;1.00;;;;;;6283359;22;21566;-84
2023/04/16 10:34:27;;;;;;;24.20;21.80;;;13.30;1.00;;;;;;6284680;22;20444;-84
2023/04/16 10:36:55;;;;;;;23.77;21.50;;;13.30;1.00;;;;;;6286182;22;20457;-83
2023/04/16 10:39:23;;;;;;;23.53;21.13;;;13.50;1.00;;;;;;6281789;22;20494;-85
2023/04/16 10:42:08;;;;;;;21.50;19.43;;;13.60;1.00;;;;;;6285136;22;20412;-84
2023/04/16 10:44:37;;;;;;;20.47;18.37;;;13.80;1.00;;;;;;6286886;22;20423;-86
2023/04/16 10:47:11;;;;;;;21.77;19.70;;;13.90;1.00;;;;;;6282233;22;20427;-84
2023/04/16 10:49:40;;;;;;;20.23;18.33;;;14.20;1.00;;;;;;6285692;22;20412;-84
2023/04/16 10:52:29;;;;;;;20.03;18.17;;;14.60;1.00;;;;;;6286136;22;20395;-85
2023/04/16 10:54:59;;;;;;;21.60;19.60;;;14.80;1.00;;;;;;6276731;22;20435;-86
2023/04/16 10:57:29;;;;;;;27.90;25.30;;;14.80;1.00;;;;;;6285976;22;20435;-85
2023/04/16 10:59:58;;;;;;;21.07;18.97;;;14.60;1.00;;;;;;6282057;22;20412;-86
2023/04/16 11:02:28;;;;;;;20.70;18.90;;;14.50;1.00;;;;;;6283639;22;20507;-84
2023/04/16 11:04:57;;;;;;;21.33;19.13;;;14.50;1.00;;;;;;6285089;22;20908;-85
2023/04/16 11:07:33;;;;;;;20.60;18.60;;;14.40;1.00;;;;;;6286473;22;20450;-85
2023/04/16 11:10:03;;;;;;;21.70;19.70;;;14.30;1.00;;;;;;6282536;22;20437;-86
2023/04/16 11:12:36;;;;;;;20.60;18.60;;;14.20;1.00;;;;;;6283724;22;20442;-85
2023/04/16 11:15:06;;;;;;;22.03;19.97;;;14.10;1.00;;;;;;6285843;22;20411;-86
2023/04/16 11:17:39;;;;;;;21.50;19.33;;;14.20;1.00;;;;;;6288881;22;20509;-86
2023/04/16 11:20:07;;;;;;;23.70;21.47;;;14.50;1.00;;;;;;6286217;22;20408;-85
2023/04/16 11:22:44;;;;;;;20.60;18.53;;;14.70;1.00;;;;;;6282595;22;20458;-85
2023/04/16 11:25:11;;;;;;;19.40;17.60;;;14.90;1.00;;;;;;6284725;22;20732;-85
2023/04/16 11:27:38;;;;;;;19.43;17.53;;;15.00;1.00;;;;;;6281935;22;20435;-82
2023/04/16 11:30:10;;;;;;;19.73;17.90;;;14.90;1.00;;;;;;6280823;22;20432;-87
2023/04/16 11:32:38;;;;;;;19.00;17.30;;;15.00;1.00;;;;;;6284788;22;21106;-87
2023/04/16 11:35:14;;;;;;;20.23;18.23;;;14.80;1.00;;;;;;6283388;22;20423;-87
2023/04/16 11:37:41;;;;;;;20.67;18.77;;;14.70;1.00;;;;;;6286312;22;20455;-86
2023/04/16 11:40:09;;;;;;;30.07;27.03;;;14.50;1.00;;;;;;6287282;22;20465;-86
2023/04/16 11:42:39;;;;;;;20.63;18.63;;;14.30;1.00;;;;;;6285835;22;20450;-87
2023/04/16 11:45:10;;;;;;;20.30;18.40;;;14.30;1.00;;;;;;6282532;22;20446;-86
2023/04/16 11:47:45;;;;;;;22.47;20.20;;;14.10;1.00;;;;;;6283069;22;20430;-86
2023/04/16 11:50:21;;;;;;;21.27;19.37;;;14.10;1.00;;;;;;6271141;22;20441;-87
2023/04/16 11:52:48;;;;;;;25.33;22.77;;;14.10;1.00;;;;;;6284992;22;20430;-87
2023/04/16 11:55:16;;;;;;;21.03;19.13;;;14.30;1.00;;;;;;6286891;22;20398;-86
2023/04/16 11:57:44;;;;;;;20.43;18.67;;;14.50;1.00;;;;;;6283576;22;20799;-86
2023/04/16 12:00:14;;;;;;;21.53;19.27;;;14.70;1.00;;;;;;6285651;22;20454;-86
2023/04/16 12:02:42;;;;;;;19.43;17.67;;;15.00;1.00;;;;;;6286807;22;20416;-85
2023/04/16 12:05:30;;;;;;;21.00;19.20;;;15.30;1.00;;;;;;6287382;22;20427;-87
2023/04/16 12:08:00;;;;;;;19.97;18.23;;;15.30;1.00;;;;;;6286725;22;20472;-87
2023/04/16 12:10:27;;;;;;;21.70;19.70;;;15.30;1.00;;;;;;6281420;22;20401;-86
2023/04/16 12:12:57;;;;;;;21.33;19.33;;;15.20;1.00;;;;;;6285849;22;20392;-86
2023/04/16 12:15:44;;;;;;;19.83;18.13;;;15.10;1.00;;;;;;6278482;22;20858;-87
2023/04/16 12:18:13;;;;;;;20.20;18.50;;;14.90;1.00;;;;;;6283852;22;20437;-84
2023/04/16 12:20:43;;;;;;;19.00;17.20;;;14.70;1.00;;;;;;6285497;22;20384;-85
2023/04/16 12:23:23;;;;;;;20.50;18.70;;;14.50;1.00;;;;;;6285876;22;20392;-84
2023/04/16 12:25:50;;;;;;;19.50;17.80;;;14.40;1.00;;;;;;6280535;22;20442;-84
2023/04/16 12:28:30;;;;;;;19.97;18.27;;;14.30;1.00;;;;;;6285817;22;20431;-84
2023/04/16 12:31:00;;;;;;;20.17;18.47;;;14.10;1.00;;;;;;6281892;22;20957;-85
2023/04/16 12:33:30;;;;;;;19.67;17.87;;;14.00;1.00;;;;;;6282759;22;20431;-84
2023/04/16 12:35:57;;;;;;;19.03;17.50;;;13.90;1.00;;;;;;6281081;22;20477;-84
2023/04/16 12:38:25;;;;;;;20.60;18.80;;;13.80;1.00;;;;;;6284614;22;20438;-85
2023/04/16 12:40:55;;;;;;;18.20;16.70;;;13.70;1.00;;;;;;6282016;22;20427;-86
2023/04/16 12:43:25;;;;;;;16.83;15.50;;;13.60;1.00;;;;;;6284990;22;21251;-84
2023/04/16 12:45:52;;;;;;;19.17;17.40;;;13.60;1.00;;;;;;6281934;22;21261;-84
2023/04/16 12:48:22;;;;;;;19.93;18.23;;;13.50;1.00;;;;;;6268813;22;20435;-87
2023/04/16 12:50:49;;;;;;;19.90;18.13;;;13.40;1.00;;;;;;6285178;22;20927;-84
2023/04/16 12:53:16;;;;;;;17.57;15.90;;;13.40;1.00;;;;;;6268439;22;20476;-85
2023/04/16 12:55:44;;;;;;;16.83;15.33;;;13.30;1.00;;;;;;6282546;22;20401;-84
2023/04/16 12:58:11;;;;;;;16.00;14.47;;;13.40;1.00;;;;;;6284927;22;20422;-84
2023/04/16 13:00:48;;;;;;;16.60;15.10;;;13.30;1.00;;;;;;6269934;22;20415;-84
2023/04/16 13:03:19;;;;;;;17.00;15.50;;;13.30;1.00;;;;;;6280297;22;21293;-85
2023/04/16 13:05:48;;;;;;;16.43;14.97;;;13.30;1.00;;;;;;6284629;22;20454;-84
2023/04/16 13:08:15;;;;;;;15.40;14.00;;;13.30;1.00;;;;;;6287418;22;20443;-84
2023/04/16 13:10:42;;;;;;;15.20;13.90;;;13.30;1.00;;;;;;6284244;22;20411;-84
2023/04/16 13:13:09;;;;;;;14.47;13.17;;;13.30;1.00;;;;;;6285868;22;20395;-85
2023/04/16 13:15:36;;;;;;;14.70;13.30;;;13.20;1.00;;;;;;6284021;22;20915;-85
2023/04/16 13:18:11;;;;;;;14.20;12.90;;;13.10;1.00;;;;;;6284553;22;20831;-85
2023/04/16 13:20:38;;;;;;;13.60;12.40;;;13.10;1.00;;;;;;6284620;22;20534;-85
2023/04/16 13:23:07;;;;;;;13.40;12.30;;;13.10;1.00;;;;;;6282657;22;20501;-86
2023/04/16 13:25:34;;;;;;;15.53;14.13;;;13.10;1.00;;;;;;6283723;22;20436;-86
2023/04/16 13:28:03;;;;;;;15.53;14.17;;;13.10;1.00;;;;;;6283820;22;20434;-85
2023/04/16 13:30:32;;;;;;;15.23;13.93;;;13.10;1.00;;;;;;6287941;22;20492;-84
2023/04/16 13:32:59;;;;;;;15.07;13.57;;;13.00;1.00;;;;;;6288066;22;20568;-85
2023/04/16 13:35:29;;;;;;;15.73;13.60;;;13.00;1.00;;;;;;6283495;22;20430;-86
2023/04/16 13:38:00;;;;;;;14.37;12.93;;;12.90;1.00;;;;;;6282379;22;20480;-85
2023/04/16 13:40:28;;;;;;;15.60;14.30;;;13.00;1.00;;;;;;6286372;22;20456;-85
2023/04/16 13:42:55;;;;;;;15.63;14.10;;;13.00;1.00;;;;;;6286961;22;20430;-86
2023/04/16 13:45:26;;;;;;;14.60;13.30;;;13.00;1.00;;;;;;6285826;22;20481;-85
2023/04/16 13:47:57;;;;;;;13.97;12.73;;;13.10;1.00;;;;;;6287182;22;20562;-85
2023/04/16 13:50:24;;;;;;;14.03;12.73;;;13.10;1.00;;;;;;6271203;22;20414;-83
2023/04/16 13:52:52;;;;;;;15.50;14.10;;;13.30;1.00;;;;;;6280265;22;20486;-85
2023/04/16 13:55:19;;;;;;;15.93;14.43;;;13.30;1.00;;;;;;6284997;22;20437;-85
2023/04/16 13:57:48;;;;;;;15.90;14.40;;;13.40;1.00;;;;;;6282862;22;20430;-84
2023/04/16 14:00:16;;;;;;;17.20;15.77;;;13.60;1.00;;;;;;6288638;22;20408;-84
2023/04/16 14:02:44;;;;;;;16.13;14.67;;;13.70;1.00;;;;;;6289675;22;20508;-84
2023/04/16 14:05:11;;;;;;;16.13;14.73;;;13.80;1.00;;;;;;6287102;22;20430;-84
2023/04/16 14:07:38;;;;;;;15.87;14.27;;;14.00;1.00;;;;;;6281613;22;20475;-84
2023/04/16 14:10:07;;;;;;;15.90;14.47;;;14.20;1.00;;;;;;6284770;22;20416;-83
2023/04/16 14:12:35;;;;;;;15.90;14.43;;;14.40;1.00;;;;;;6284073;22;20904;-85
2023/04/16 14:15:05;;;;;;;15.43;14.13;;;14.60;1.00;;;;;;6282403;22;20768;-85
2023/04/16 14:17:33;;;;;;;15.40;14.00;;;14.80;1.00;;;;;;6281722;22;20562;-84
2023/04/16 14:20:01;;;;;;;15.10;13.80;;;15.00;1.00;;;;;;6276938;22;21195;-87
2023/04/16 14:22:28;;;;;;;13.70;12.60;;;15.20;1.00;;;;;;6286272;22;20489;-86
2023/04/16 14:24:56;;;;;;;13.40;12.20;;;15.20;1.00;;;;;;6284884;22;20428;-86
2023/04/16 14:27:23;;;;;;;13.73;12.53;;;15.20;1.00;;;;;;6288742;22;20403;-87
2023/04/16 14:29:51;;;;;;;13.57;12.27;;;15.30;1.00;;;;;;6283799;22;20416;-87
2023/04/16 14:32:20;;;;;;;13.93;12.73;;;15.10;1.00;;;;;;6291181;22;20392;-85
2023/04/16 14:34:47;;;;;;;12.60;11.60;;;15.10;1.00;;;;;;6285898;22;20423;-87
2023/04/16 14:37:16;;;;;;;12.90;11.70;;;14.80;1.00;;;;;;6287127;22;20435;-86
2023/04/16 14:39:43;;;;;;;12.17;11.13;;;14.70;1.00;;;;;;6284636;22;20417;-87
2023/04/16 14:42:10;;;;;;;13.83;12.47;;;14.60;1.00;;;;;;6287661;22;20477;-85
2023/04/16 14:44:37;;;;;;;12.03;10.93;;;14.40;1.00;;;;;;6288454;22;20913;-86
2023/04/16 14:47:05;;;;;;;13.83;12.63;;;14.30;1.00;;;;;;6289467;22;20415;-87
2023/04/16 14:49:51;;;;;;;13.13;12.03;;;14.20;1.00;;;;;;6289039;22;20802;-87
2023/04/16 14:52:19;;;;;;;13.57;12.27;;;14.10;1.00;;;;;;6290280;22;20417;-85
2023/04/16 14:54:51;;;;;;;12.17;11.10;;;13.90;1.00;;;;;;6294374;22;20445;-87
2023/04/16 14:57:18;;;;;;;12.33;11.20;;;13.80;1.00;;;;;;6290555;22;20431;-87
2023/04/16 14:59:45;;;;;;;13.53;12.33;;;13.70;1.00;;;;;;6289548;22;21178;-86
2023/04/16 15:02:12;;;;;;;13.63;12.53;;;13.50;1.00;;;;;;6289011;22;20387;-87
2023/04/16 15:04:39;;;;;;;12.90;11.70;;;13.40;1.00;;;;;;6290681;22;20442;-85
2023/04/16 15:07:10;;;;;;;13.97;12.60;;;13.30;1.00;;;;;;6291821;22;20431;-85
2023/04/16 15:09:37;;;;;;;12.90;11.80;;;13.10;1.00;;;;;;6290562;22;20407;-85
2023/04/16 15:12:05;;;;;;;13.40;12.30;;;13.10;1.00;;;;;;6290126;22;20394;-86
2023/04/16 15:14:33;;;;;;;12.00;11.00;;;13.00;1.00;;;;;;6290142;22;20434;-87
2023/04/16 15:17:00;;;;;;;12.40;11.40;;;12.90;1.00;;;;;;6288390;22;20423;-87